Time;durP1;ratioP1;P1;durP2;ratioP2;P2;SDS_P1;SDS_P2;PMS_P1;PMS_P2;Temp;Humidity;BMP_temperature;BMP_pressure;BME280_temperature;BME280_humidity;BME280_pressure;Samples;Min_cycle;Max_cycle;Signal;HPM_P1;HPM_P2
2023/07/31 00:02:25;;;;;;;16.88;2.95;;;;;;;;;;5068642;28;20385;-74
2023/07/31 00:04:51;;;;;;;19.88;2.90;;;;;;;;;;5072109;28;20036;-73
2023/07/31 00:07:17;;;;;;;21.98;3.72;;;;;;;;;;5072081;28;20030;-72
2023/07/31 00:09:43;;;;;;;21.55;2.78;;;;;;;;;;5072158;28;20023;-73
2023/07/31 00:12:09;;;;;;;15.63;2.63;;;;;;;;;;5071850;28;20021;-73
2023/07/31 00:14:34;;;;;;;16.85;2.45;;;;;;;;;;5072183;28;20482;-73
2023/07/31 00:17:01;;;;;;;11.93;2.70;;;;;;;;;;5072216;28;20024;-75
2023/07/31 00:19:27;;;;;;;19.40;2.65;;;;;;;;;;5072575;28;20028;-74
2023/07/31 00:21:53;;;;;;;13.30;2.58;;;;;;;;;;5071724;28;20131;-73
2023/07/31 00:24:19;;;;;;;10.57;2.45;;;;;;;;;;5071865;28;20043;-74
2023/07/31 00:26:45;;;;;;;15.13;3.00;;;;;;;;;;5072402;28;20166;-73
2023/07/31 00:29:11;;;;;;;13.23;2.55;;;;;;;;;;5071927;28;20031;-72
2023/07/31 00:31:37;;;;;;;16.65;3.03;;;;;;;;;;5071933;28;20028;-72
2023/07/31 00:34:03;;;;;;;13.10;2.78;;;;;;;;;;5071646;28;20363;-74
2023/07/31 00:36:29;;;;;;;18.48;3.10;;;;;;;;;;5071836;28;20031;-75
2023/07/31 00:38:55;;;;;;;17.98;3.25;;;;;;;;;;5071999;28;20439;-73
2023/07/31 00:41:21;;;;;;;21.70;2.58;;;;;;;;;;5071940;28;20039;-74
2023/07/31 00:43:47;;;;;;;16.73;2.92;;;;;;;;;;5071881;28;20028;-75
2023/07/31 00:46:13;;;;;;;22.15;3.20;;;;;;;;;;5071936;28;20048;-74
2023/07/31 00:48:40;;;;;;;14.70;2.70;;;;;;;;;;5071970;28;20481;-72
2023/07/31 00:51:08;;;;;;;23.17;2.78;;;;;;;;;;5071763;28;20024;-73
2023/07/31 00:53:34;;;;;;;10.07;2.60;;;;;;;;;;5071558;28;20040;-73
2023/07/31 00:56:00;;;;;;;13.45;2.90;;;;;;;;;;5071975;28;20016;-73
2023/07/31 00:58:26;;;;;;;20.13;2.90;;;;;;;;;;5071543;28;20024;-73
2023/07/31 01:00:53;;;;;;;13.90;3.00;;;;;;;;;;5071544;28;20039;-72
2023/07/31 01:03:19;;;;;;;16.02;2.97;;;;;;;;;;5071299;28;20090;-73
2023/07/31 01:05:54;;;;;;;17.48;2.78;;;;;;;;;;5070961;28;20401;-73
2023/07/31 01:08:23;;;;;;;14.80;2.50;;;;;;;;;;5072386;28;20446;-74
2023/07/31 01:10:51;;;;;;;24.35;3.00;;;;;;;;;;5076734;28;20032;-73
2023/07/31 01:13:18;;;;;;;19.55;3.10;;;;;;;;;;5080333;28;20055;-72
2023/07/31 01:15:44;;;;;;;12.25;2.67;;;;;;;;;;5083988;28;20074;-72
2023/07/31 01:18:10;;;;;;;23.65;3.40;;;;;;;;;;5084818;28;20021;-73
2023/07/31 01:20:38;;;;;;;12.45;2.78;;;;;;;;;;5084665;28;20027;-73
2023/07/31 01:23:22;;;;;;;23.63;3.40;;;;;;;;;;5084201;28;20027;-73
2023/07/31 01:25:48;;;;;;;17.92;3.20;;;;;;;;;;5075325;28;20041;-74
2023/07/31 01:28:15;;;;;;;11.38;2.53;;;;;;;;;;5075526;28;20343;-72
2023/07/31 01:30:43;;;;;;;17.88;3.08;;;;;;;;;;5075396;28;20052;-73
2023/07/31 01:33:09;;;;;;;9.48;2.58;;;;;;;;;;5075084;28;20028;-73
2023/07/31 01:35:36;;;;;;;16.75;3.90;;;;;;;;;;5073890;28;20505;-72
2023/07/31 01:38:02;;;;;;;16.52;2.90;;;;;;;;;;5075343;28;20075;-72
2023/07/31 01:40:28;;;;;;;13.35;3.42;;;;;;;;;;5075014;28;20082;-73
2023/07/31 01:42:54;;;;;;;18.58;3.65;;;;;;;;;;5074709;28;20029;-72
2023/07/31 01:45:20;;;;;;;15.40;3.30;;;;;;;;;;5074931;28;20028;-72
2023/07/31 01:47:46;;;;;;;15.40;3.13;;;;;;;;;;5074923;28;20072;-72
2023/07/31 01:50:12;;;;;;;20.23;3.65;;;;;;;;;;5074680;28;20021;-73
2023/07/31 01:52:38;;;;;;;10.20;2.97;;;;;;;;;;5074453;28;20025;-74
2023/07/31 01:55:04;;;;;;;18.85;3.40;;;;;;;;;;5074412;28;20081;-73
2023/07/31 01:57:30;;;;;;;14.82;3.30;;;;;;;;;;5074538;28;20420;-73
2023/07/31 01:59:56;;;;;;;17.63;3.35;;;;;;;;;;5074472;28;20134;-73
2023/07/31 02:02:23;;;;;;;14.50;3.58;;;;;;;;;;5074341;28;20145;-73
2023/07/31 02:04:49;;;;;;;14.68;3.30;;;;;;;;;;5074281;28;20103;-73
2023/07/31 02:07:15;;;;;;;15.60;4.00;;;;;;;;;;5074918;28;20029;-73
2023/07/31 02:09:41;;;;;;;19.77;3.60;;;;;;;;;;5075643;28;20047;-72
2023/07/31 02:12:08;;;;;;;17.63;3.80;;;;;;;;;;5078467;28;20032;-73
2023/07/31 02:14:34;;;;;;;14.88;3.17;;;;;;;;;;5081757;28;20017;-73
2023/07/31 02:17:00;;;;;;;12.93;3.83;;;;;;;;;;5079470;28;20024;-72
2023/07/31 02:19:26;;;;;;;20.85;3.78;;;;;;;;;;5075208;28;20023;-72
2023/07/31 02:21:52;;;;;;;14.98;4.05;;;;;;;;;;5073871;28;20474;-74
2023/07/31 02:24:18;;;;;;;23.13;3.78;;;;;;;;;;5074475;28;20047;-74
2023/07/31 02:26:44;;;;;;;18.27;4.10;;;;;;;;;;5074051;28;20029;-73
2023/07/31 02:29:10;;;;;;;20.83;3.97;;;;;;;;;;5074054;28;20024;-72
2023/07/31 02:31:36;;;;;;;14.65;3.45;;;;;;;;;;5073878;28;20099;-73
2023/07/31 02:34:02;;;;;;;21.52;3.42;;;;;;;;;;5073657;28;20353;-72
2023/07/31 02:36:28;;;;;;;17.65;3.58;;;;;;;;;;5073915;28;20016;-73
2023/07/31 02:38:55;;;;;;;14.10;3.72;;;;;;;;;;5073596;28;20394;-73
2023/07/31 02:41:21;;;;;;;19.33;3.80;;;;;;;;;;5074012;28;20020;-73
2023/07/31 02:43:47;;;;;;;15.10;4.40;;;;;;;;;;5073722;28;20501;-73
2023/07/31 02:46:13;;;;;;;14.75;3.83;;;;;;;;;;5073700;28;20025;-72
2023/07/31 02:48:39;;;;;;;16.00;3.63;;;;;;;;;;5073542;28;20068;-72
2023/07/31 02:51:05;;;;;;;17.42;3.88;;;;;;;;;;5073489;28;20026;-72
2023/07/31 02:53:31;;;;;;;17.25;4.03;;;;;;;;;;5073242;28;20218;-73
2023/07/31 02:55:57;;;;;;;15.30;4.28;;;;;;;;;;5073458;28;20017;-73
2023/07/31 02:58:23;;;;;;;17.63;3.42;;;;;;;;;;5073226;28;20383;-74
2023/07/31 03:00:49;;;;;;;15.57;3.78;;;;;;;;;;5073611;28;20033;-74
2023/07/31 03:03:15;;;;;;;19.58;5.13;;;;;;;;;;5070531;28;20052;-73
2023/07/31 03:05:41;;;;;;;17.88;4.63;;;;;;;;;;5073285;28;20547;-73
2023/07/31 03:08:07;;;;;;;15.63;4.28;;;;;;;;;;5072976;28;20040;-74
2023/07/31 03:10:33;;;;;;;14.20;3.95;;;;;;;;;;5073016;28;20032;-73
2023/07/31 03:12:59;;;;;;;17.70;4.13;;;;;;;;;;5072410;28;20039;-73
2023/07/31 03:15:25;;;;;;;19.08;4.57;;;;;;;;;;5072858;28;20492;-73
2023/07/31 03:17:51;;;;;;;16.42;4.05;;;;;;;;;;5072886;28;20028;-73
2023/07/31 03:20:17;;;;;;;13.85;3.63;;;;;;;;;;5073010;28;20029;-73
2023/07/31 03:22:43;;;;;;;15.90;4.25;;;;;;;;;;5072203;28;20090;-73
2023/07/31 03:25:10;;;;;;;12.65;3.40;;;;;;;;;;5072665;28;20036;-72
2023/07/31 03:27:36;;;;;;;15.77;3.95;;;;;;;;;;5072809;28;20044;-73
2023/07/31 03:30:03;;;;;;;14.30;4.38;;;;;;;;;;5072688;28;20056;-75
2023/07/31 03:32:29;;;;;;;15.52;4.00;;;;;;;;;;5071516;28;20090;-73
2023/07/31 03:34:55;;;;;;;13.85;3.92;;;;;;;;;;5072618;28;20474;-75
2023/07/31 03:37:21;;;;;;;14.70;3.92;;;;;;;;;;5074219;28;20099;-73
2023/07/31 03:39:47;;;;;;;18.92;4.00;;;;;;;;;;5072849;28;20020;-73
2023/07/31 03:42:13;;;;;;;12.93;4.03;;;;;;;;;;5072338;28;20078;-74
2023/07/31 03:44:38;;;;;;;10.43;3.75;;;;;;;;;;5072798;28;20019;-72
2023/07/31 03:47:05;;;;;;;19.15;3.80;;;;;;;;;;5072978;28;20104;-73
2023/07/31 03:49:31;;;;;;;12.90;3.80;;;;;;;;;;5074765;28;20024;-73
2023/07/31 03:51:57;;;;;;;17.65;4.38;;;;;;;;;;5073807;28;20032;-73
2023/07/31 03:54:23;;;;;;;15.35;4.70;;;;;;;;;;5072856;28;20020;-73
2023/07/31 03:56:49;;;;;;;14.18;4.30;;;;;;;;;;5072463;28;20465;-73
2023/07/31 03:59:15;;;;;;;12.55;3.97;;;;;;;;;;5072179;28;20397;-73
2023/07/31 04:01:41;;;;;;;16.58;4.00;;;;;;;;;;5072203;28;20024;-74
2023/07/31 04:04:07;;;;;;;12.93;3.75;;;;;;;;;;5070687;28;20306;-73
2023/07/31 04:06:33;;;;;;;15.10;4.68;;;;;;;;;;5072169;28;20024;-74
2023/07/31 04:08:59;;;;;;;12.65;3.97;;;;;;;;;;5072017;28;20021;-73
2023/07/31 04:11:25;;;;;;;13.82;3.55;;;;;;;;;;5071942;28;20304;-73
2023/07/31 04:13:51;;;;;;;18.35;4.47;;;;;;;;;;5071761;28;20028;-73
2023/07/31 04:16:17;;;;;;;17.23;3.85;;;;;;;;;;5072026;28;20025;-73
2023/07/31 04:18:43;;;;;;;8.75;3.95;;;;;;;;;;5071779;28;20441;-73
2023/07/31 04:21:09;;;;;;;15.50;3.78;;;;;;;;;;5071882;28;20046;-75
2023/07/31 04:23:35;;;;;;;15.82;3.95;;;;;;;;;;5072113;28;20478;-72
2023/07/31 04:26:01;;;;;;;11.65;4.03;;;;;;;;;;5071852;28;20033;-72
2023/07/31 04:28:27;;;;;;;15.32;4.15;;;;;;;;;;5071793;28;20502;-74
2023/07/31 04:30:53;;;;;;;6.25;3.35;;;;;;;;;;5071592;28;20154;-73
2023/07/31 04:33:19;;;;;;;14.32;4.32;;;;;;;;;;5071626;28;20092;-73
2023/07/31 04:35:52;;;;;;;12.95;3.70;;;;;;;;;;5071567;28;20031;-72
2023/07/31 04:38:18;;;;;;;11.18;3.33;;;;;;;;;;5071804;28;20392;-75
2023/07/31 04:40:44;;;;;;;7.55;2.90;;;;;;;;;;5071759;28;20024;-74
2023/07/31 04:43:09;;;;;;;8.90;3.78;;;;;;;;;;5070878;28;20097;-73
2023/07/31 04:45:35;;;;;;;8.52;3.40;;;;;;;;;;5071933;28;20130;-72
2023/07/31 04:48:01;;;;;;;9.13;2.97;;;;;;;;;;5072185;28;20033;-73
2023/07/31 04:50:28;;;;;;;5.93;3.40;;;;;;;;;;5071455;28;20032;-73
2023/07/31 04:52:53;;;;;;;9.20;2.65;;;;;;;;;;5071413;28;20036;-73
2023/07/31 04:55:19;;;;;;;4.68;2.75;;;;;;;;;;5071925;28;20021;-73
2023/07/31 04:57:45;;;;;;;7.78;3.03;;;;;;;;;;5071468;28;20053;-73
2023/07/31 05:00:12;;;;;;;4.93;2.95;;;;;;;;;;5071665;28;20097;-73
2023/07/31 05:02:37;;;;;;;11.48;3.10;;;;;;;;;;5071202;28;20119;-75
2023/07/31 05:05:04;;;;;;;5.47;2.65;;;;;;;;;;5071416;28;20111;-74
2023/07/31 05:07:30;;;;;;;6.65;2.60;;;;;;;;;;5071333;28;20029;-74
2023/07/31 05:09:56;;;;;;;4.10;2.42;;;;;;;;;;5073091;28;20020;-74
2023/07/31 05:12:22;;;;;;;5.90;2.92;;;;;;;;;;5077010;28;20024;-72
2023/07/31 05:14:48;;;;;;;5.57;2.42;;;;;;;;;;5076952;28;20021;-73
2023/07/31 05:17:13;;;;;;;7.28;2.70;;;;;;;;;;5076986;28;20020;-73
2023/07/31 05:19:40;;;;;;;6.43;2.30;;;;;;;;;;5071038;28;20485;-75
2023/07/31 05:22:06;;;;;;;3.47;2.30;;;;;;;;;;5069536;28;20024;-74
2023/07/31 05:24:33;;;;;;;8.77;2.63;;;;;;;;;;5069839;28;20108;-75
2023/07/31 05:26:59;;;;;;;3.80;2.15;;;;;;;;;;5072126;28;20282;-73
2023/07/31 05:29:25;;;;;;;5.03;3.40;;;;;;;;;;5071232;28;20474;-73
2023/07/31 05:31:51;;;;;;;6.22;2.25;;;;;;;;;;5062879;28;20036;-73
2023/07/31 05:34:17;;;;;;;4.43;2.20;;;;;;;;;;5068440;28;20233;-75
2023/07/31 05:36:43;;;;;;;4.30;2.17;;;;;;;;;;5069128;28;20021;-72
2023/07/31 05:39:09;;;;;;;3.13;2.15;;;;;;;;;;5070631;28;20021;-74
2023/07/31 05:41:36;;;;;;;2.90;2.20;;;;;;;;;;5070355;28;20470;-74
2023/07/31 05:44:02;;;;;;;10.75;3.15;;;;;;;;;;5065466;28;20036;-72
2023/07/31 05:46:28;;;;;;;5.90;2.40;;;;;;;;;;5072361;28;20025;-74
2023/07/31 05:48:54;;;;;;;3.08;2.00;;;;;;;;;;5071174;28;20723;-74
2023/07/31 05:51:20;;;;;;;4.57;2.08;;;;;;;;;;5071294;28;20032;-75
2023/07/31 05:53:45;;;;;;;5.72;2.03;;;;;;;;;;5068271;28;20031;-73
2023/07/31 05:56:11;;;;;;;3.95;2.40;;;;;;;;;;5073301;28;20482;-73
2023/07/31 05:58:37;;;;;;;6.45;2.03;;;;;;;;;;5073529;28;20028;-73
2023/07/31 06:01:03;;;;;;;7.43;2.30;;;;;;;;;;5072150;28;20082;-73
2023/07/31 06:03:30;;;;;;;8.13;2.17;;;;;;;;;;5072559;28;20056;-74
2023/07/31 06:05:56;;;;;;;6.30;2.50;;;;;;;;;;5074403;28;20382;-73
2023/07/31 06:08:22;;;;;;;5.55;2.67;;;;;;;;;;5071369;28;20078;-73
2023/07/31 06:10:48;;;;;;;4.40;2.30;;;;;;;;;;5073026;28;20041;-73
2023/07/31 06:13:14;;;;;;;3.50;1.90;;;;;;;;;;5073563;28;20024;-73
2023/07/31 06:15:40;;;;;;;3.05;1.83;;;;;;;;;;5074522;28;20020;-73
2023/07/31 06:18:07;;;;;;;2.60;1.90;;;;;;;;;;5074511;28;20020;-75
2023/07/31 06:20:34;;;;;;;3.70;2.35;;;;;;;;;;5074721;28;20031;-72
2023/07/31 06:23:00;;;;;;;3.75;1.80;;;;;;;;;;5074106;28;20031;-73
2023/07/31 06:25:26;;;;;;;6.38;2.20;;;;;;;;;;5074058;28;20032;-73
2023/07/31 06:27:52;;;;;;;17.45;10.55;;;;;;;;;;5074131;28;20134;-73
2023/07/31 06:30:17;;;;;;;3.25;2.13;;;;;;;;;;5064886;28;20469;-73
2023/07/31 06:32:43;;;;;;;3.22;2.00;;;;;;;;;;5073027;28;20024;-74
2023/07/31 06:35:10;;;;;;;3.95;2.10;;;;;;;;;;5073717;28;20097;-73
2023/07/31 06:37:36;;;;;;;5.95;2.28;;;;;;;;;;5073744;28;20078;-72
2023/07/31 06:40:02;;;;;;;3.00;1.90;;;;;;;;;;5073750;28;20027;-72
2023/07/31 06:42:28;;;;;;;5.13;2.00;;;;;;;;;;5072910;28;20029;-72
2023/07/31 06:44:54;;;;;;;7.43;2.35;;;;;;;;;;5073554;28;20029;-72
2023/07/31 06:47:20;;;;;;;2.92;1.95;;;;;;;;;;5073421;28;20078;-73
2023/07/31 06:49:46;;;;;;;4.43;2.05;;;;;;;;;;5073773;28;20505;-72
2023/07/31 06:52:12;;;;;;;2.13;1.67;;;;;;;;;;5072832;28;20052;-73
2023/07/31 06:54:38;;;;;;;5.35;2.20;;;;;;;;;;5073503;28;20051;-73
2023/07/31 06:57:04;;;;;;;5.90;2.42;;;;;;;;;;5073255;28;20063;-72
2023/07/31 06:59:30;;;;;;;2.13;1.80;;;;;;;;;;5073250;28;20020;-73
2023/07/31 07:01:56;;;;;;;7.57;2.22;;;;;;;;;;5072763;28;20108;-72
2023/07/31 07:04:22;;;;;;;2.80;2.10;;;;;;;;;;5073278;28;20033;-73
2023/07/31 07:06:47;;;;;;;3.42;2.08;;;;;;;;;;5072560;28;20032;-73
2023/07/31 07:09:14;;;;;;;2.88;2.10;;;;;;;;;;5074189;28;20146;-73
2023/07/31 07:11:40;;;;;;;5.25;2.33;;;;;;;;;;5076334;28;20033;-73
2023/07/31 07:14:06;;;;;;;2.53;2.22;;;;;;;;;;5077077;28;20025;-72
2023/07/31 07:16:32;;;;;;;2.63;1.77;;;;;;;;;;5079560;28;20544;-73
2023/07/31 07:18:58;;;;;;;3.78;2.05;;;;;;;;;;5078452;28;20028;-71
2023/07/31 07:21:23;;;;;;;4.85;1.90;;;;;;;;;;5077826;28;20035;-72
2023/07/31 07:23:49;;;;;;;3.13;2.20;;;;;;;;;;5077220;28;20032;-72
2023/07/31 07:26:16;;;;;;;2.00;1.80;;;;;;;;;;5078486;28;20178;-73
2023/07/31 07:28:42;;;;;;;7.60;4.78;;;;;;;;;;5079302;28;20481;-72
2023/07/31 07:31:08;;;;;;;2.25;1.75;;;;;;;;;;5077481;28;20029;-74
2023/07/31 07:33:34;;;;;;;2.17;1.58;;;;;;;;;;5072845;28;20028;-71
2023/07/31 07:36:02;;;;;;;2.17;1.90;;;;;;;;;;5072641;28;20495;-72
2023/07/31 07:38:28;;;;;;;4.22;1.70;;;;;;;;;;5072622;28;20066;-71
2023/07/31 07:40:54;;;;;;;2.83;1.67;;;;;;;;;;5072385;28;20036;-72
2023/07/31 07:43:20;;;;;;;3.33;1.80;;;;;;;;;;5072401;28;20076;-72
2023/07/31 07:45:46;;;;;;;2.30;1.60;;;;;;;;;;5072771;28;20025;-73
2023/07/31 07:48:12;;;;;;;1.50;1.40;;;;;;;;;;5072611;28;20087;-72
2023/07/31 07:50:39;;;;;;;3.90;1.90;;;;;;;;;;5072838;28;20104;-71
2023/07/31 07:53:05;;;;;;;2.58;1.65;;;;;;;;;;5071810;28;20082;-72
2023/07/31 07:55:31;;;;;;;2.45;1.90;;;;;;;;;;5072652;28;20031;-73
2023/07/31 07:57:57;;;;;;;2.78;1.90;;;;;;;;;;5072157;28;20059;-73
2023/07/31 08:00:23;;;;;;;3.50;2.13;;;;;;;;;;5073592;28;20028;-71
2023/07/31 08:02:49;;;;;;;5.50;1.65;;;;;;;;;;5073358;28;20020;-73
2023/07/31 08:05:17;;;;;;;5.32;2.05;;;;;;;;;;5071562;28;20024;-71
2023/07/31 08:07:43;;;;;;;2.95;1.77;;;;;;;;;;5072171;28;20027;-72
2023/07/31 08:10:09;;;;;;;3.50;1.77;;;;;;;;;;5072015;28;20029;-71
2023/07/31 08:12:35;;;;;;;2.50;1.55;;;;;;;;;;5071951;28;20101;-76
2023/07/31 08:15:01;;;;;;;5.55;2.35;;;;;;;;;;5072083;28;20462;-71
2023/07/31 08:17:27;;;;;;;2.40;1.75;;;;;;;;;;5071892;28;20119;-72
2023/07/31 08:19:53;;;;;;;2.78;1.95;;;;;;;;;;5072080;28;20063;-73
2023/07/31 08:22:19;;;;;;;4.00;2.03;;;;;;;;;;5071631;28;20020;-73
2023/07/31 08:24:45;;;;;;;3.05;1.83;;;;;;;;;;5072567;28;20394;-72
2023/07/31 08:27:11;;;;;;;2.70;1.40;;;;;;;;;;5073265;28;20386;-71
2023/07/31 08:29:37;;;;;;;1.83;1.52;;;;;;;;;;5071921;28;20028;-74
2023/07/31 08:32:03;;;;;;;4.55;1.88;;;;;;;;;;5059380;28;20088;-73
2023/07/31 08:34:29;;;;;;;4.60;1.95;;;;;;;;;;5052720;28;20021;-71
2023/07/31 08:36:55;;;;;;;2.95;2.10;;;;;;;;;;5051621;28;20021;-72
2023/07/31 08:39:21;;;;;;;2.75;1.60;;;;;;;;;;5052223;28;20033;-73
2023/07/31 08:41:48;;;;;;;2.00;1.58;;;;;;;;;;5049866;28;20043;-73
2023/07/31 08:44:14;;;;;;;3.15;1.88;;;;;;;;;;5051513;28;20495;-72
2023/07/31 08:46:41;;;;;;;2.08;1.65;;;;;;;;;;5051125;28;20033;-70
2023/07/31 08:49:08;;;;;;;3.20;1.70;;;;;;;;;;5052770;28;20053;-72
2023/07/31 08:51:37;;;;;;;2.03;1.40;;;;;;;;;;5053467;28;20075;-72
2023/07/31 08:54:06;;;;;;;5.18;2.55;;;;;;;;;;5052311;28;20021;-71
2023/07/31 08:56:32;;;;;;;4.38;2.50;;;;;;;;;;5052669;28;20025;-72
2023/07/31 08:59:00;;;;;;;3.55;2.45;;;;;;;;;;5052988;28;20440;-72
2023/07/31 09:01:26;;;;;;;2.60;1.60;;;;;;;;;;5052458;28;20078;-73
2023/07/31 09:03:52;;;;;;;2.28;1.40;;;;;;;;;;5054583;28;20116;-73
2023/07/31 09:06:19;;;;;;;4.22;2.85;;;;;;;;;;5052326;28;20039;-72
2023/07/31 09:08:45;;;;;;;3.95;1.30;;;;;;;;;;5053474;28;20025;-72
2023/07/31 09:11:11;;;;;;;2.10;0.90;;;;;;;;;;5052768;28;20497;-71
2023/07/31 09:13:38;;;;;;;1.98;1.25;;;;;;;;;;5051391;28;20040;-73
2023/07/31 09:16:04;;;;;;;2.53;1.05;;;;;;;;;;5051631;28;20025;-73
2023/07/31 09:18:30;;;;;;;3.00;1.63;;;;;;;;;;5051337;28;20036;-72
2023/07/31 09:21:03;;;;;;;1.67;1.10;;;;;;;;;;5051384;28;20021;-74
2023/07/31 09:23:40;;;;;;;3.97;1.20;;;;;;;;;;5050905;28;20025;-74
2023/07/31 09:26:07;;;;;;;2.58;1.50;;;;;;;;;;5051297;28;20056;-74
2023/07/31 09:28:33;;;;;;;2.40;1.23;;;;;;;;;;5051710;28;20043;-71
2023/07/31 09:30:59;;;;;;;2.88;1.50;;;;;;;;;;5053609;28;20033;-74
2023/07/31 09:33:25;;;;;;;4.45;1.48;;;;;;;;;;5055606;28;20071;-77
2023/07/31 09:35:51;;;;;;;2.10;1.10;;;;;;;;;;5056175;28;20021;-78
2023/07/31 09:38:17;;;;;;;1.95;1.33;;;;;;;;;;5060051;28;20587;-73
2023/07/31 09:40:47;;;;;;;3.60;1.30;;;;;;;;;;5055086;28;20037;-74
2023/07/31 09:43:25;;;;;;;2.42;1.60;;;;;;;;;;5054702;28;20536;-72
2023/07/31 09:45:56;;;;;;;2.30;1.17;;;;;;;;;;5055686;28;20049;-73
2023/07/31 09:48:26;;;;;;;1.80;1.25;;;;;;;;;;5056051;28;20021;-72
2023/07/31 09:50:52;;;;;;;3.08;1.77;;;;;;;;;;5055447;28;20069;-73
2023/07/31 09:53:18;;;;;;;2.70;1.75;;;;;;;;;;5055480;28;20502;-72
2023/07/31 09:55:44;;;;;;;5.18;1.60;;;;;;;;;;5056535;28;20032;-73
2023/07/31 09:58:11;;;;;;;4.45;2.20;;;;;;;;;;5054518;28;20017;-73
2023/07/31 10:00:38;;;;;;;3.13;2.10;;;;;;;;;;5054367;28;20032;-73
2023/07/31 10:03:08;;;;;;;1.40;1.30;;;;;;;;;;5054034;28;20395;-71
2023/07/31 10:05:37;;;;;;;2.63;1.23;;;;;;;;;;5054986;28;20021;-74
2023/07/31 10:08:03;;;;;;;1.95;1.23;;;;;;;;;;5054937;28;20025;-73
2023/07/31 10:10:29;;;;;;;3.58;2.00;;;;;;;;;;5054442;28;20040;-75
2023/07/31 10:12:57;;;;;;;2.83;1.70;;;;;;;;;;5055868;28;20017;-77
2023/07/31 10:15:23;;;;;;;2.13;1.40;;;;;;;;;;5055393;28;20526;-77
2023/07/31 10:17:50;;;;;;;1.85;1.30;;;;;;;;;;5054542;28;20029;-78
2023/07/31 10:20:17;;;;;;;4.35;2.10;;;;;;;;;;5054594;28;20036;-80
2023/07/31 10:22:43;;;;;;;2.63;1.65;;;;;;;;;;5054367;28;20075;-77
2023/07/31 10:25:10;;;;;;;3.30;1.70;;;;;;;;;;5056892;28;20037;-77
2023/07/31 10:27:37;;;;;;;4.30;1.67;;;;;;;;;;5056671;28;20021;-73
2023/07/31 10:30:04;;;;;;;4.13;1.75;;;;;;;;;;5053926;28;20482;-72
2023/07/31 10:32:30;;;;;;;2.80;1.63;;;;;;;;;;5053390;28;20021;-74
2023/07/31 10:34:57;;;;;;;6.97;3.15;;;;;;;;;;5054209;28;20467;-74
2023/07/31 10:37:28;;;;;;;2.75;1.77;;;;;;;;;;5054068;28;20565;-72
2023/07/31 10:40:00;;;;;;;7.32;2.15;;;;;;;;;;5054080;28;20024;-74
2023/07/31 10:42:30;;;;;;;5.95;4.10;;;;;;;;;;5052358;28;20032;-72
2023/07/31 10:45:00;;;;;;;6.63;3.30;;;;;;;;;;5053804;28;20028;-73
2023/07/31 10:47:26;;;;;;;4.15;1.98;;;;;;;;;;5053861;28;20017;-74
2023/07/31 10:49:52;;;;;;;4.47;2.05;;;;;;;;;;5056258;28;20356;-74
2023/07/31 10:52:26;;;;;;;4.45;2.42;;;;;;;;;;5057238;28;20624;-74
2023/07/31 10:55:12;;;;;;;3.33;1.27;;;;;;;;;;5054454;28;20055;-74
2023/07/31 10:57:38;;;;;;;2.10;0.90;;;;;;;;;;5055955;28;20032;-72
2023/07/31 11:00:18;;;;;;;1.42;0.93;;;;;;;;;;5053735;28;20430;-72
2023/07/31 11:02:57;;;;;;;4.53;1.35;;;;;;;;;;5053146;28;20052;-72
2023/07/31 11:05:41;;;;;;;2.45;1.40;;;;;;;;;;5053421;28;20013;-74
2023/07/31 11:08:13;;;;;;;3.03;1.58;;;;;;;;;;5053433;28;20043;-73
2023/07/31 11:10:39;;;;;;;2.83;1.50;;;;;;;;;;5053191;28;20510;-73
2023/07/31 11:13:05;;;;;;;1.60;1.10;;;;;;;;;;5052926;28;20021;-71
2023/07/31 11:15:31;;;;;;;2.45;1.10;;;;;;;;;;5052743;28;20025;-73
2023/07/31 11:17:58;;;;;;;1.85;1.00;;;;;;;;;;5052529;28;20025;-74
2023/07/31 11:20:24;;;;;;;4.07;1.20;;;;;;;;;;5052385;28;20062;-71
2023/07/31 11:22:50;;;;;;;3.53;1.42;;;;;;;;;;5052322;28;20025;-72
2023/07/31 11:25:17;;;;;;;17.58;11.60;;;;;;;;;;5052929;28;20166;-73
2023/07/31 11:27:43;;;;;;;11.25;8.23;;;;;;;;;;5053075;28;20033;-75
2023/07/31 11:30:09;;;;;;;4.13;2.50;;;;;;;;;;5052895;28;20017;-75
2023/07/31 11:32:38;;;;;;;4.03;2.20;;;;;;;;;;5052656;28;20025;-72
2023/07/31 11:35:05;;;;;;;2.33;1.80;;;;;;;;;;5052935;28;20033;-73
2023/07/31 11:37:45;;;;;;;2.90;2.00;;;;;;;;;;5052895;28;20025;-73
2023/07/31 11:40:11;;;;;;;2.42;1.40;;;;;;;;;;5052687;28;20096;-74
2023/07/31 11:42:38;;;;;;;4.93;1.48;;;;;;;;;;5052331;28;20508;-74
2023/07/31 11:45:04;;;;;;;3.45;1.50;;;;;;;;;;5052871;28;20036;-73
2023/07/31 11:47:30;;;;;;;3.15;1.25;;;;;;;;;;5052575;28;20029;-73
2023/07/31 11:49:56;;;;;;;2.55;0.98;;;;;;;;;;5052496;28;20055;-74
2023/07/31 11:52:23;;;;;;;1.73;0.90;;;;;;;;;;5051854;28;20021;-74
2023/07/31 11:54:50;;;;;;;3.22;1.30;;;;;;;;;;5050119;28;20020;-74
2023/07/31 11:57:16;;;;;;;2.38;1.30;;;;;;;;;;5051865;28;20029;-73
2023/07/31 11:59:42;;;;;;;1.48;0.93;;;;;;;;;;5052280;28;20021;-72
2023/07/31 12:02:09;;;;;;;2.58;0.93;;;;;;;;;;5051205;28;20482;-75
2023/07/31 12:04:35;;;;;;;4.15;1.40;;;;;;;;;;5052056;28;20493;-72
2023/07/31 12:07:01;;;;;;;2.90;1.30;;;;;;;;;;5051765;28;20104;-72
2023/07/31 12:09:27;;;;;;;3.47;2.65;;;;;;;;;;5052130;28;20108;-73
2023/07/31 12:11:53;;;;;;;2.78;1.10;;;;;;;;;;5051224;28;20111;-73
2023/07/31 12:14:26;;;;;;;1.67;1.08;;;;;;;;;;5051756;28;20534;-73
2023/07/31 12:16:59;;;;;;;1.75;1.10;;;;;;;;;;5051954;28;20025;-72
2023/07/31 12:19:29;;;;;;;1.42;1.05;;;;;;;;;;5051626;28;20025;-72
2023/07/31 12:21:55;;;;;;;2.83;1.05;;;;;;;;;;5050967;28;20021;-72
2023/07/31 12:24:21;;;;;;;3.90;2.60;;;;;;;;;;5051284;28;20044;-73
2023/07/31 12:26:48;;;;;;;2.28;1.48;;;;;;;;;;5051675;28;20083;-73
2023/07/31 12:29:15;;;;;;;1.63;1.00;;;;;;;;;;5051374;28;20488;-72
2023/07/31 12:31:44;;;;;;;2.45;0.80;;;;;;;;;;5051508;28;20025;-73
2023/07/31 12:34:20;;;;;;;3.60;1.88;;;;;;;;;;5047982;28;20021;-74
2023/07/31 12:36:49;;;;;;;34.08;22.77;;;;;;;;;;5051360;28;20032;-74
2023/07/31 12:39:15;;;;;;;5.18;3.45;;;;;;;;;;5051016;28;20101;-74
2023/07/31 12:41:41;;;;;;;3.58;1.73;;;;;;;;;;5050306;28;20475;-71
2023/07/31 12:44:07;;;;;;;1.83;1.40;;;;;;;;;;5050962;28;20139;-73
2023/07/31 12:46:33;;;;;;;1.65;1.00;;;;;;;;;;5056718;28;20100;-73
2023/07/31 12:48:59;;;;;;;5.60;4.10;;;;;;;;;;5071000;28;20024;-73
2023/07/31 12:51:25;;;;;;;5.70;1.70;;;;;;;;;;5069966;28;20032;-73
2023/07/31 12:53:51;;;;;;;2.35;0.88;;;;;;;;;;5070834;28;20047;-73
2023/07/31 12:56:17;;;;;;;1.90;1.30;;;;;;;;;;5071580;28;20024;-73
2023/07/31 12:58:44;;;;;;;1.15;0.70;;;;;;;;;;5069341;28;20025;-73
2023/07/31 13:01:10;;;;;;;1.13;0.73;;;;;;;;;;5066623;28;20174;-73
2023/07/31 13:03:36;;;;;;;1.58;1.10;;;;;;;;;;5069471;23;20076;-73
2023/07/31 13:06:01;;;;;;;2.72;1.10;;;;;;;;;;5065174;28;20556;-74
2023/07/31 13:08:28;;;;;;;1.55;0.95;;;;;;;;;;5062131;28;20017;-76
2023/07/31 13:10:53;;;;;;;1.45;0.80;;;;;;;;;;5058563;28;20047;-75
2023/07/31 13:13:19;;;;;;;1.05;0.80;;;;;;;;;;5056213;28;20199;-74
2023/07/31 13:15:45;;;;;;;2.47;1.02;;;;;;;;;;5060121;28;20037;-73
2023/07/31 13:18:11;;;;;;;1.70;1.15;;;;;;;;;;5069618;28;20025;-75
2023/07/31 13:20:37;;;;;;;3.00;1.73;;;;;;;;;;5062860;28;20024;-75
2023/07/31 13:23:03;;;;;;;5.20;1.00;;;;;;;;;;5061600;28;20475;-74
2023/07/31 13:25:29;;;;;;;3.67;1.25;;;;;;;;;;5060477;28;20033;-74
2023/07/31 13:27:55;;;;;;;1.05;0.70;;;;;;;;;;5063809;28;20055;-74
2023/07/31 13:30:21;;;;;;;0.75;0.60;;;;;;;;;;5067979;28;20482;-73
2023/07/31 13:32:47;;;;;;;1.63;0.77;;;;;;;;;;5067349;28;20020;-75
2023/07/31 13:35:13;;;;;;;1.20;0.80;;;;;;;;;;5077225;28;20083;-77
2023/07/31 13:37:39;;;;;;;1.75;0.80;;;;;;;;;;5068700;28;20029;-74
2023/07/31 13:40:06;;;;;;;0.88;0.70;;;;;;;;;;5070245;28;20037;-74
2023/07/31 13:42:32;;;;;;;1.80;0.85;;;;;;;;;;5064203;28;20017;-73
2023/07/31 13:44:58;;;;;;;3.72;2.00;;;;;;;;;;5075252;28;20028;-73
2023/07/31 13:47:24;;;;;;;2.15;1.17;;;;;;;;;;5077629;28;20362;-73
2023/07/31 13:49:50;;;;;;;2.05;0.90;;;;;;;;;;5075838;28;20032;-75
2023/07/31 13:52:16;;;;;;;1.50;0.82;;;;;;;;;;5076189;28;20500;-74
2023/07/31 13:54:42;;;;;;;1.73;0.88;;;;;;;;;;5077489;28;20029;-73
2023/07/31 13:57:09;;;;;;;0.88;0.63;;;;;;;;;;5082672;28;20086;-74
2023/07/31 13:59:35;;;;;;;0.90;0.65;;;;;;;;;;5079393;28;20024;-75
2023/07/31 14:02:00;;;;;;;4.47;2.63;;;;;;;;;;5067385;28;20513;-73
2023/07/31 14:04:26;;;;;;;2.83;1.30;;;;;;;;;;5053236;28;20211;-75
2023/07/31 14:06:53;;;;;;;1.15;0.70;;;;;;;;;;5052595;28;20025;-74
2023/07/31 14:09:19;;;;;;;2.80;0.90;;;;;;;;;;5058760;28;20032;-74
2023/07/31 14:11:45;;;;;;;1.52;0.70;;;;;;;;;;5061319;28;20025;-75
2023/07/31 14:14:10;;;;;;;4.20;0.70;;;;;;;;;;5052617;28;20428;-74
2023/07/31 14:16:37;;;;;;;1.33;0.60;;;;;;;;;;5052771;28;20037;-75
2023/07/31 14:19:03;;;;;;;0.80;0.60;;;;;;;;;;5052954;28;20467;-74
2023/07/31 14:21:29;;;;;;;0.85;0.70;;;;;;;;;;5059382;28;20021;-75
2023/07/31 14:23:54;;;;;;;1.80;0.77;;;;;;;;;;5072300;28;20044;-75
2023/07/31 14:26:21;;;;;;;9.25;4.30;;;;;;;;;;5072937;28;20107;-75
2023/07/31 14:28:47;;;;;;;5.75;2.03;;;;;;;;;;5072826;28;20039;-76
2023/07/31 14:31:13;;;;;;;2.13;0.85;;;;;;;;;;5055272;28;20091;-75
2023/07/31 14:33:39;;;;;;;1.83;0.98;;;;;;;;;;5031148;28;20029;-75
2023/07/31 14:36:05;;;;;;;2.80;1.60;;;;;;;;;;5034119;28;20747;-76